Terminal Aerodrome Forecast
Issued by NWS

Home | Current Version | Previous Version | Text Only | Print | Product List | Glossary On
Versions: 1 2 3 4 5 6 7 8 9 10 11 12
000
FTUS42 KMLB 260525
TAFISM
TAF
KISM 260525Z 2606/2706 10005KT P6SM FEW025 SCT250
     FM261400 11010KT P6SM FEW025
     FM261900 10014G21KT P6SM SCT040 BKN060
     FM270000 09010KT P6SM FEW030 BKN250
      AMD NOT SKED TIL 261200=

USA.gov is the U.S. government's official web portal to all federal, state and local government web resources and services.